EPWA

Details ICAO EPWA (WAW)
Name Warsaw Frederic Chopin
Region Poland
Timezone Europe/Warsaw (UTC+2.0)
Plans Departing 10448
Arriving 8297
Stats Elevation 362 ft / 110 m (AMSL)
Location 52.165100° 20.967000°
Runways 2
Magnetic Variation 6.418° E
Sunrise 2022-10-05 04:44:27 UTC / 2022-10-05 06:44:27 Local
Sunset 2022-10-05 16:07:11 UTC / 2022-10-05 18:07:11 Local
Advertisement - Login to hide

Runways

ID Width Length Bearing (true/mag) Surface Threshold Overrun Markings Lighting
11 164 ft / 50 m 9,166 ft / 2,794 m 114.57° / 108.15° ASPHALT 0 ft / 0 m 492 ft / 150 m PREC-APP CENTERLINE EDGE THRESHOLD ALSF-II TDZ REIL-OMNI
15 197 ft / 60 m 12,093 ft / 3,686 m 151.80° / 145.38° ASPHALT 0 ft / 0 m 144 ft / 44 m PREC-APP CENTERLINE EDGE THRESHOLD ALSF-I REIL-OMNI
29 164 ft / 50 m 9,166 ft / 2,794 m 294.60° / 288.18° ASPHALT 1,617 ft / 493 m 102 ft / 31 m PREC-APP CENTERLINE EDGE THRESHOLD ALSF-I REIL-OMNI
33 197 ft / 60 m 12,093 ft / 3,686 m 331.82° / 325.40° ASPHALT 2,159 ft / 658 m 148 ft / 45 m PREC-APP CENTERLINE EDGE THRESHOLD ALSF-II TDZ REIL-OMNI

Approach Navaids

Runway Type Ident Frequency Range Bearing (true/mag) Slope Elevation
11 DME WAS 109.90 MHz 18 nm / 33 km - - 394 ft / 120 m (AMSL)
11 LOC-ILS WAS 109.90 MHz 18 nm / 33 km 114.59° / 108.17° - 362 ft / 110 m (AMSL)
11 GS WAS 109.90 MHz 10 nm / 19 km 114.59° / 108.17° 3.00° 362 ft / 110 m (AMSL)
33 DME WA 110.30 MHz 18 nm / 33 km - - 394 ft / 120 m (AMSL)
33 LOC-ILS WA 110.30 MHz 18 nm / 33 km 331.82° / 325.40° - 362 ft / 110 m (AMSL)
33 GS WA 110.30 MHz 10 nm / 19 km 331.82° / 325.40° 3.00° 362 ft / 110 m (AMSL)

Map

Weather


0- 5 10 15 20 25 30 35+ Temperature / °C

Clouds and Precipitation
Forecast for 2022-10-05 06:00 UTC. Updated 2 hours ago

Ground ~20,000 ft ~40,000 ft Winds

METAR

EPWA 050500Z VRB02KT CAVOK 08/07 Q1022 NOSIG

TAF

TAF EPWA 050230Z 0503/0603 21005KT CAVOK= TAF EPWR 050230Z 0503/0603 14005KT CAVOK

Frequencies

Approach 125.05 MHz Warsaw Approach
Recorded 118.77 MHz Olsztyn Information
Recorded 120.45 MHz ATIS
Tower 118.30 MHz Okecie Tower
Ground 121.90 MHz Okecie Ground
Clearance 121.60 MHz Clearance Delivery
Approach 128.80 MHz Warsaw Approach
Recorded 119.45 MHz Warsaw Information
Warning: Do not use this data for real-world aviation or navigation. No guarantee of current accuracy is given.